Breeze Hill, South Carolina
Current Conditions -  °F | °C
As of 7:53 AM on Tuesday 21 Oct 2014 (Local Time) from KDNL Reporting Station
Clear Clear  
Wind Chill: 57°   Ceiling: Unl
Heat Index: 57°   Visibility: 10mi
Dew Point: 50°   Wind: 5mph
Humidity: 77%   Direction: 290°WNW
Pressure: 29.98"   Gusts: NA
Location:  33.5159°N, 81.8379°W
Report Text: KDNL 211153Z AUTO 29004KT 10SM CLR 14/10 A2998 RMK AO2 SLP150 T01390100 10161 20133 53004
Loading
Personal Weather Stations






























Interactive Weather Map New forecast layout! Learn more

10-Day Weather Forecast

Advertisements
Track Severe Weather on mobile